createdAt,value
2022-12-09T00:00:11.991Z,1.54
2022-12-09T00:02:40.803Z,1.49
2022-12-09T00:05:10.298Z,1.41
2022-12-09T00:07:38.826Z,1.37
2022-12-09T00:10:09.173Z,1.31
2022-12-09T00:12:37.451Z,1.22
2022-12-09T00:15:08.860Z,1.19
2022-12-09T00:17:37.269Z,1.19
2022-12-09T00:20:07.712Z,1.21
2022-12-09T00:22:36.431Z,1.20
2022-12-09T00:25:04.896Z,1.23
2022-12-09T00:27:33.383Z,1.27
2022-12-09T00:30:01.622Z,1.31
2022-12-09T00:32:31.468Z,1.34
2022-12-09T00:34:59.793Z,1.36
2022-12-09T00:37:28.170Z,1.36
2022-12-09T00:39:56.409Z,1.33
2022-12-09T00:42:24.675Z,1.31
2022-12-09T00:44:52.886Z,1.32
2022-12-09T00:47:21.433Z,1.34
2022-12-09T00:49:51.274Z,1.37
2022-12-09T00:52:19.665Z,1.42
2022-12-09T00:54:48.195Z,1.50
2022-12-09T00:57:16.492Z,1.56
2022-12-09T00:59:45.043Z,1.63
2022-12-09T01:02:13.675Z,1.66
2022-12-09T01:04:42.008Z,1.69
2022-12-09T01:07:12.973Z,1.70
2022-12-09T01:09:41.278Z,1.70
2022-12-09T01:12:12.163Z,1.69
2022-12-09T01:14:40.784Z,1.70
2022-12-09T01:17:09.358Z,1.72
2022-12-09T01:19:37.814Z,1.69
2022-12-09T01:22:06.022Z,1.67
2022-12-09T01:24:35.642Z,1.65
2022-12-09T01:27:03.978Z,1.63
2022-12-09T01:29:32.257Z,1.62
2022-12-09T01:32:00.974Z,1.63
2022-12-09T01:34:29.477Z,1.64
2022-12-09T01:36:57.913Z,1.66
2022-12-09T01:39:26.303Z,1.67
2022-12-09T01:41:56.089Z,1.69
2022-12-09T01:44:27.289Z,1.69
2022-12-09T01:46:57.620Z,1.72
2022-12-09T01:49:30.338Z,1.72
2022-12-09T01:52:06.715Z,1.76
2022-12-09T01:54:35.394Z,1.79
2022-12-09T01:57:06.540Z,1.81
2022-12-09T01:59:35.916Z,1.85
2022-12-09T02:02:06.911Z,1.88
2022-12-09T02:04:41.302Z,1.88
2022-12-09T02:07:11.837Z,1.90
2022-12-09T02:09:40.998Z,1.88
2022-12-09T02:12:15.404Z,1.89
2022-12-09T02:14:51.133Z,1.85
2022-12-09T02:17:31.166Z,1.83
2022-12-09T02:20:10.545Z,1.83
2022-12-09T02:22:44.642Z,1.84
2022-12-09T02:25:25.319Z,1.85
2022-12-09T02:28:36.202Z,1.84
2022-12-09T02:31:21.517Z,1.83
2022-12-09T02:34:19.010Z,1.80
2022-12-09T02:37:00.421Z,1.77
2022-12-09T02:39:35.556Z,1.73
2022-12-09T02:42:06.116Z,1.72
2022-12-09T02:44:36.683Z,1.72
2022-12-09T02:47:07.995Z,1.70
2022-12-09T02:49:40.293Z,1.65
2022-12-09T02:52:09.749Z,1.59
2022-12-09T02:54:40.241Z,1.55
2022-12-09T02:57:24.651Z,1.49
2022-12-09T02:59:53.080Z,1.46
2022-12-09T03:02:28.432Z,1.44
2022-12-09T03:05:11.311Z,1.37
2022-12-09T03:07:46.282Z,1.33
2022-12-09T03:10:22.009Z,1.31
2022-12-09T03:12:56.441Z,1.31
2022-12-09T03:15:29.211Z,1.22
2022-12-09T03:17:59.896Z,1.14
2022-12-09T03:20:31.774Z,1.07
2022-12-09T03:23:03.531Z,0.96
2022-12-09T03:25:35.711Z,0.85
2022-12-09T03:28:07.443Z,0.78
2022-12-09T03:30:42.007Z,0.70
2022-12-09T03:33:11.500Z,0.63
2022-12-09T03:35:45.209Z,0.55
2022-12-09T03:38:18.809Z,0.51
2022-12-09T03:40:52.040Z,0.49
2022-12-09T03:43:25.504Z,0.49
2022-12-09T03:45:54.688Z,0.43
2022-12-09T03:48:25.105Z,0.35
2022-12-09T03:51:01.170Z,0.28
2022-12-09T03:53:37.922Z,0.19
2022-12-09T03:56:16.826Z,0.13
2022-12-09T03:58:49.167Z,0.05
2022-12-09T04:01:18.441Z,0.00
2022-12-09T04:03:50.825Z,-0.06
2022-12-09T04:06:20.808Z,-0.09
2022-12-09T04:08:50.172Z,-0.10
2022-12-09T04:11:18.489Z,-0.14
2022-12-09T04:13:46.870Z,-0.20
2022-12-09T04:16:15.583Z,-0.28
2022-12-09T04:18:44.247Z,-0.31
2022-12-09T04:21:15.331Z,-0.32
2022-12-09T04:23:45.107Z,-0.36
2022-12-09T04:26:16.335Z,-0.40
2022-12-09T04:28:45.181Z,-0.46
2022-12-09T04:31:14.679Z,-0.52
2022-12-09T04:33:44.061Z,-0.57
2022-12-09T04:36:16.584Z,-0.59
2022-12-09T04:38:47.148Z,-0.61
2022-12-09T04:41:16.954Z,-0.66
2022-12-09T04:43:45.685Z,-0.67
2022-12-09T04:46:16.977Z,-0.71
2022-12-09T04:48:46.501Z,-0.69
2022-12-09T04:51:17.192Z,-0.68
2022-12-09T04:53:47.098Z,-0.70
2022-12-09T04:56:19.094Z,-0.70
2022-12-09T04:58:48.585Z,-0.68
2022-12-09T05:01:24.781Z,-0.70
2022-12-09T05:03:56.992Z,-0.73
2022-12-09T05:06:25.851Z,-0.75
2022-12-09T05:08:56.535Z,-0.76
2022-12-09T05:11:25.900Z,-0.82
2022-12-09T05:13:55.329Z,-0.87
2022-12-09T05:16:24.090Z,-0.90
2022-12-09T05:18:53.269Z,-0.96
2022-12-09T05:21:23.128Z,-0.98
2022-12-09T05:23:52.275Z,-1.03
2022-12-09T05:26:24.457Z,-1.06
2022-12-09T05:28:54.882Z,-1.09
2022-12-09T05:31:24.745Z,-1.13
2022-12-09T05:33:54.131Z,-1.18
2022-12-09T05:36:25.479Z,-1.23
2022-12-09T05:38:54.681Z,-1.26
2022-12-09T05:41:25.253Z,-1.24
2022-12-09T05:43:54.689Z,-1.22
2022-12-09T05:46:23.468Z,-1.19
2022-12-09T05:48:52.461Z,-1.18
2022-12-09T05:51:25.441Z,-1.18
2022-12-09T05:53:55.747Z,-1.22
2022-12-09T05:56:26.703Z,-1.23
2022-12-09T05:58:56.519Z,-1.24
2022-12-09T06:01:26.544Z,-1.28
2022-12-09T06:03:56.724Z,-1.31
2022-12-09T06:06:28.051Z,-1.35
2022-12-09T06:08:58.773Z,-1.40
2022-12-09T06:11:29.335Z,-1.42
2022-12-09T06:13:58.474Z,-1.38
2022-12-09T06:16:27.329Z,-1.37
2022-12-09T06:18:56.244Z,-1.37
2022-12-09T06:21:25.555Z,-1.42
2022-12-09T06:23:54.911Z,-1.42
2022-12-09T06:26:26.412Z,-1.42
2022-12-09T06:28:57.590Z,-1.44
2022-12-09T06:31:26.898Z,-1.47
2022-12-09T06:33:57.990Z,-1.50
2022-12-09T06:36:31.406Z,-1.47
2022-12-09T06:39:09.545Z,-1.49
2022-12-09T06:41:40.786Z,-1.51
2022-12-09T06:44:14.306Z,-1.54
2022-12-09T06:46:45.662Z,-1.51
2022-12-09T06:49:14.409Z,-1.47
2022-12-09T06:51:42.826Z,-1.42
2022-12-09T06:54:11.169Z,-1.39
2022-12-09T06:56:39.739Z,-1.40
2022-12-09T06:59:11.323Z,-1.41
2022-12-09T07:01:40.911Z,-1.44
2022-12-09T07:04:09.436Z,-1.47
2022-12-09T07:06:40.247Z,-1.47
2022-12-09T07:09:11.425Z,-1.44
2022-12-09T07:11:40.534Z,-1.41
2022-12-09T07:14:11.636Z,-1.41
2022-12-09T07:16:40.750Z,-1.44
2022-12-09T07:19:09.734Z,-1.43
2022-12-09T07:21:38.363Z,-1.48
2022-12-09T07:24:07.718Z,-1.48
2022-12-09T07:26:37.079Z,-1.46
2022-12-09T07:29:06.625Z,-1.47
2022-12-09T07:31:37.498Z,-1.46
2022-12-09T07:34:06.833Z,-1.44
2022-12-09T07:36:38.058Z,-1.44
2022-12-09T07:39:09.617Z,-1.47
2022-12-09T07:41:38.124Z,-1.48
2022-12-09T07:44:06.857Z,-1.47
2022-12-09T07:46:36.647Z,-1.45
2022-12-09T07:49:07.305Z,-1.43
2022-12-09T07:51:36.304Z,-1.45
2022-12-09T07:54:05.466Z,-1.41
2022-12-09T07:56:34.383Z,-1.40
2022-12-09T07:59:02.804Z,-1.38
2022-12-09T08:01:31.721Z,-1.30
2022-12-09T08:04:02.523Z,-1.31
2022-12-09T08:06:32.213Z,-1.31
2022-12-09T08:09:02.049Z,-1.31
2022-12-09T08:11:33.152Z,-1.27
2022-12-09T08:14:11.064Z,-1.21
2022-12-09T08:16:41.867Z,-1.16
2022-12-09T08:19:13.307Z,-1.15
2022-12-09T08:21:42.425Z,-1.14
2022-12-09T08:24:13.775Z,-1.13
2022-12-09T08:26:43.293Z,-1.09
2022-12-09T08:29:14.372Z,-1.03
2022-12-09T08:31:47.295Z,-0.98
2022-12-09T08:34:23.149Z,-0.93
2022-12-09T08:36:52.954Z,-0.87
2022-12-09T08:39:24.049Z,-0.82
2022-12-09T08:41:52.398Z,-0.79
2022-12-09T08:44:22.835Z,-0.76
2022-12-09T08:46:52.989Z,-0.73
2022-12-09T08:49:25.148Z,-0.69
2022-12-09T08:51:54.741Z,-0.62
2022-12-09T08:54:24.015Z,-0.54
2022-12-09T08:56:56.254Z,-0.46
2022-12-09T08:59:25.413Z,-0.38
2022-12-09T09:01:54.510Z,-0.32
2022-12-09T09:04:24.580Z,-0.28
2022-12-09T09:06:54.181Z,-0.23
2022-12-09T09:09:23.786Z,-0.18
2022-12-09T09:11:52.761Z,-0.15
2022-12-09T09:14:21.088Z,-0.11
2022-12-09T09:16:49.994Z,-0.03
2022-12-09T09:19:22.601Z,0.03
2022-12-09T09:21:53.264Z,0.11
2022-12-09T09:24:25.159Z,0.25
2022-12-09T09:26:54.779Z,0.49
2022-12-09T09:29:24.972Z,0.75
2022-12-09T09:31:55.230Z,0.92
2022-12-09T09:34:26.147Z,0.96
2022-12-09T09:36:56.870Z,0.99
2022-12-09T09:39:25.904Z,1.01
2022-12-09T09:41:57.400Z,1.03
2022-12-09T09:44:32.601Z,1.03
2022-12-09T09:47:05.424Z,1.07
2022-12-09T09:49:37.712Z,1.09
2022-12-09T09:52:12.702Z,1.15
2022-12-09T09:54:41.644Z,1.26
2022-12-09T09:57:17.276Z,1.35
2022-12-09T10:00:08.451Z,1.40
2022-12-09T10:03:01.129Z,1.52
2022-12-09T10:05:34.224Z,1.63
2022-12-09T10:08:28.021Z,1.73
2022-12-09T10:11:09.230Z,1.83
2022-12-09T10:13:49.444Z,1.93
2022-12-09T10:16:23.138Z,1.99
2022-12-09T10:19:08.188Z,2.02
2022-12-09T10:21:43.415Z,2.06
2022-12-09T10:24:25.037Z,2.03
2022-12-09T10:27:03.635Z,2.03
2022-12-09T10:29:56.769Z,2.05
2022-12-09T10:32:29.056Z,2.13
2022-12-09T10:34:59.273Z,2.18
2022-12-09T10:37:33.029Z,2.16
2022-12-09T10:40:22.125Z,2.09
2022-12-09T10:43:11.728Z,2.06
2022-12-09T10:48:39.737Z,2.02
2022-12-09T10:51:14.125Z,2.04
2022-12-09T10:53:48.725Z,2.19
2022-12-09T10:56:26.701Z,2.25
2022-12-09T10:59:11.961Z,2.23
2022-12-09T11:01:52.209Z,2.26
2022-12-09T11:04:26.343Z,2.28
2022-12-09T11:07:00.223Z,2.25
2022-12-09T11:09:32.259Z,2.26
2022-12-09T11:12:05.724Z,2.34
2022-12-09T11:14:38.257Z,2.41
2022-12-09T11:17:17.052Z,2.49
2022-12-09T11:19:51.332Z,2.50
2022-12-09T11:22:39.142Z,2.48
2022-12-09T11:25:23.801Z,2.52
2022-12-09T11:27:57.764Z,2.56
2022-12-09T11:30:29.288Z,2.56
2022-12-09T11:33:09.925Z,2.61
2022-12-09T11:35:53.653Z,2.62
2022-12-09T11:38:40.237Z,2.64
2022-12-09T11:41:41.539Z,2.62
2022-12-09T11:44:26.763Z,2.64
2022-12-09T11:47:02.450Z,2.67
2022-12-09T11:49:33.998Z,2.70
2022-12-09T11:52:24.475Z,2.72
2022-12-09T11:55:10.679Z,2.71
2022-12-09T11:57:47.945Z,2.75
2022-12-09T12:00:23.700Z,2.75
2022-12-09T12:03:04.019Z,2.71
2022-12-09T12:05:38.303Z,2.72
2022-12-09T12:08:17.745Z,2.78
2022-12-09T12:10:51.244Z,2.79
2022-12-09T12:13:24.699Z,2.76
2022-12-09T12:16:07.025Z,2.75
2022-12-09T12:18:42.815Z,2.72
2022-12-09T12:21:51.042Z,2.67
2022-12-09T12:24:42.262Z,2.67
2022-12-09T12:27:29.524Z,2.67
2022-12-09T12:30:04.999Z,2.68
2022-12-09T12:33:11.736Z,2.65
2022-12-09T12:35:56.136Z,2.67
2022-12-09T12:38:51.548Z,2.68
2022-12-09T12:41:37.585Z,2.66
2022-12-09T12:44:41.757Z,2.66
2022-12-09T12:47:25.960Z,2.64
2022-12-09T12:50:23.704Z,2.71
2022-12-09T12:53:03.397Z,2.80
2022-12-09T12:56:01.034Z,2.84
2022-12-09T12:58:47.571Z,2.94
2022-12-09T13:01:32.129Z,2.99
2022-12-09T13:04:14.143Z,2.91
2022-12-09T13:06:52.163Z,2.84
2022-12-09T13:09:26.986Z,2.84
2022-12-09T13:12:08.514Z,2.85
2022-12-09T13:14:52.837Z,2.84
2022-12-09T13:17:26.499Z,2.84
2022-12-09T13:20:00.036Z,2.84
2022-12-09T13:22:41.290Z,2.82
2022-12-09T13:25:25.568Z,2.79
2022-12-09T13:28:00.744Z,2.79
2022-12-09T13:30:39.001Z,2.81
2022-12-09T13:33:32.030Z,2.79
2022-12-09T13:36:06.794Z,2.81
2022-12-09T13:38:40.720Z,2.82
2022-12-09T13:42:05.186Z,2.79
2022-12-09T13:44:37.713Z,2.79
2022-12-09T13:47:27.836Z,2.79
2022-12-09T13:50:02.452Z,2.79
2022-12-09T13:52:56.611Z,2.78
2022-12-09T13:55:41.165Z,2.79
2022-12-09T13:59:01.885Z,2.78
2022-12-09T14:01:37.386Z,2.79
2022-12-09T14:04:14.441Z,2.83
2022-12-09T14:07:10.364Z,2.86
2022-12-09T14:09:49.082Z,2.87
2022-12-09T14:13:03.532Z,2.84
2022-12-09T14:15:39.986Z,2.85
2022-12-09T14:18:32.997Z,2.85
2022-12-09T14:21:30.605Z,2.85
2022-12-09T14:24:36.697Z,2.85
2022-12-09T14:27:19.658Z,2.87
2022-12-09T14:29:53.558Z,2.88
2022-12-09T14:32:27.677Z,2.89
2022-12-09T14:35:23.495Z,2.87
2022-12-09T14:38:16.863Z,2.89
2022-12-09T14:40:58.120Z,2.85
2022-12-09T14:43:57.593Z,2.83
2022-12-09T14:46:30.142Z,2.80
2022-12-09T14:49:03.497Z,2.74
2022-12-09T14:51:36.675Z,2.67
2022-12-09T14:54:09.426Z,2.62
2022-12-09T14:56:37.846Z,2.55
2022-12-09T14:59:19.329Z,2.49
2022-12-09T15:01:54.438Z,2.42
2022-12-09T15:04:31.851Z,2.30
2022-12-09T15:07:16.317Z,2.18
2022-12-09T15:09:57.077Z,2.06
2022-12-09T15:12:31.215Z,1.95
2022-12-09T15:15:07.171Z,1.85
2022-12-09T15:17:43.497Z,1.74
2022-12-09T15:20:28.997Z,1.61
2022-12-09T15:23:00.677Z,1.48
2022-12-09T15:25:29.678Z,1.37
2022-12-09T15:28:00.499Z,1.27
2022-12-09T15:30:35.186Z,1.23
2022-12-09T15:33:04.790Z,1.13
2022-12-09T15:35:34.562Z,1.08
2022-12-09T15:38:07.499Z,1.00
2022-12-09T15:40:38.158Z,0.93
2022-12-09T15:43:12.651Z,0.87
2022-12-09T15:45:45.322Z,0.85
2022-12-09T15:48:18.043Z,0.82
2022-12-09T15:50:51.470Z,0.76
2022-12-09T15:53:25.298Z,0.69
2022-12-09T15:55:57.885Z,0.61
2022-12-09T15:58:30.543Z,0.55
2022-12-09T16:01:00.374Z,0.52
2022-12-09T16:03:32.724Z,0.49
2022-12-09T16:06:05.256Z,0.46
2022-12-09T16:08:36.349Z,0.43
2022-12-09T16:11:05.637Z,0.40
2022-12-09T16:13:34.186Z,0.36
2022-12-09T16:16:28.284Z,0.32
2022-12-09T16:18:56.933Z,0.30
2022-12-09T16:21:29.281Z,0.29
2022-12-09T16:24:07.160Z,0.26
2022-12-09T16:26:38.756Z,0.24
2022-12-09T16:29:16.511Z,0.18
2022-12-09T16:31:46.166Z,0.17
2022-12-09T16:34:21.986Z,0.15
2022-12-09T16:36:55.919Z,0.13
2022-12-09T16:39:35.558Z,0.08
2022-12-09T16:42:04.221Z,0.06
2022-12-09T16:44:36.905Z,0.03
2022-12-09T16:47:13.796Z,0.02
2022-12-09T16:49:44.274Z,-0.02
2022-12-09T16:52:15.369Z,-0.06
2022-12-09T16:54:45.688Z,-0.07
2022-12-09T16:57:15.694Z,-0.12
2022-12-09T16:59:45.207Z,-0.15
2022-12-09T17:02:26.399Z,-0.21
2022-12-09T17:04:54.870Z,-0.24
2022-12-09T17:07:23.093Z,-0.22
2022-12-09T17:09:51.293Z,-0.23
2022-12-09T17:12:19.569Z,-0.26
2022-12-09T17:14:47.883Z,-0.26
2022-12-09T17:17:16.156Z,-0.26
2022-12-09T17:19:46.679Z,-0.27
2022-12-09T17:22:14.907Z,-0.30
2022-12-09T17:24:43.363Z,-0.33
2022-12-09T17:27:11.588Z,-0.34
2022-12-09T17:29:39.924Z,-0.36
2022-12-09T17:32:08.499Z,-0.35
2022-12-09T17:34:36.766Z,-0.36
2022-12-09T17:37:06.934Z,-0.36
2022-12-09T17:39:35.690Z,-0.30
2022-12-09T17:42:03.999Z,-0.25
2022-12-09T17:44:32.273Z,-0.23
2022-12-09T17:47:00.604Z,-0.16
2022-12-09T17:49:28.874Z,-0.13
2022-12-09T17:51:57.193Z,-0.11
2022-12-09T17:54:26.815Z,-0.12
2022-12-09T17:56:55.043Z,-0.14
2022-12-09T17:59:23.240Z,-0.22
2022-12-09T18:01:51.440Z,-0.23
2022-12-09T18:04:19.712Z,-0.26
2022-12-09T18:06:48.220Z,-0.28
2022-12-09T18:09:19.834Z,-0.31
2022-12-09T18:11:51.703Z,-0.35
2022-12-09T18:14:20.537Z,-0.40
2022-12-09T18:16:50.117Z,-0.41
2022-12-09T18:19:20.761Z,-0.44
2022-12-09T18:21:50.219Z,-0.47
2022-12-09T18:24:18.749Z,-0.51
2022-12-09T18:26:49.694Z,-0.52
2022-12-09T18:29:18.050Z,-0.54
2022-12-09T18:31:50.449Z,-0.53
2022-12-09T18:34:21.185Z,-0.53
2022-12-09T18:36:49.461Z,-0.55
2022-12-09T18:39:18.127Z,-0.56
2022-12-09T18:41:47.989Z,-0.60
2022-12-09T18:44:17.577Z,-0.64
2022-12-09T18:46:49.217Z,-0.70
2022-12-09T18:49:23.572Z,-0.71
2022-12-09T18:51:53.391Z,-0.73
2022-12-09T18:54:24.710Z,-0.75
2022-12-09T18:56:54.923Z,-0.74
2022-12-09T18:59:25.462Z,-0.76
2022-12-09T19:01:54.074Z,-0.79
2022-12-09T19:04:25.660Z,-0.77
2022-12-09T19:06:57.299Z,-0.76
2022-12-09T19:09:28.545Z,-0.76
2022-12-09T19:12:11.285Z,-0.73
2022-12-09T19:14:47.556Z,-0.75
2022-12-09T19:17:15.812Z,-0.73
2022-12-09T19:19:45.328Z,-0.71
2022-12-09T19:22:13.562Z,-0.70
2022-12-09T19:24:43.421Z,-0.69
2022-12-09T19:27:13.946Z,-0.68
2022-12-09T19:29:42.376Z,-0.67
2022-12-09T19:32:36.450Z,-0.65
2022-12-09T19:34:58.975Z,-0.66
2022-12-09T19:37:27.272Z,-0.68
2022-12-09T19:39:55.609Z,-0.69
2022-12-09T19:42:25.238Z,-0.68
2022-12-09T19:45:01.280Z,-0.70
2022-12-09T19:47:29.964Z,-0.71
2022-12-09T19:49:58.231Z,-0.71
2022-12-09T19:52:27.975Z,-0.70
2022-12-09T19:54:57.852Z,-0.67
2022-12-09T19:57:27.524Z,-0.68
2022-12-09T19:59:55.824Z,-0.73
2022-12-09T20:02:24.056Z,-0.81
2022-12-09T20:04:52.555Z,-0.82
2022-12-09T20:07:21.533Z,-0.81
2022-12-09T20:09:50.158Z,-0.84
2022-12-09T20:12:18.446Z,-0.87
2022-12-09T20:14:48.078Z,-0.90
2022-12-09T20:17:17.385Z,-0.90
2022-12-09T20:19:45.636Z,-0.96
2022-12-09T20:22:13.872Z,-0.97
2022-12-09T20:24:43.214Z,-0.99
2022-12-09T20:27:11.529Z,-1.00
2022-12-09T20:29:41.159Z,-1.01
2022-12-09T20:32:11.005Z,-0.98
2022-12-09T20:34:39.613Z,-0.97
2022-12-09T20:37:08.028Z,-0.98
2022-12-09T20:39:36.335Z,-0.96
2022-12-09T20:42:04.792Z,-0.98
2022-12-09T20:44:33.393Z,-0.97
2022-12-09T20:47:01.666Z,-0.97
2022-12-09T20:49:31.415Z,-1.00
2022-12-09T20:52:05.780Z,-1.00
2022-12-09T20:54:34.055Z,-1.01
2022-12-09T20:57:02.306Z,-1.01
2022-12-09T20:59:30.579Z,-1.02
2022-12-09T21:01:58.855Z,-1.02
2022-12-09T21:04:27.140Z,-1.06
2022-12-09T21:06:57.364Z,-1.08
2022-12-09T21:09:27.232Z,-1.11
2022-12-09T21:11:55.524Z,-1.09
2022-12-09T21:14:29.416Z,-1.09
2022-12-09T21:17:00.818Z,-1.11
2022-12-09T21:19:30.413Z,-1.09
2022-12-09T21:22:00.127Z,-1.06
2022-12-09T21:24:28.681Z,-1.02
2022-12-09T21:26:57.288Z,-1.02
2022-12-09T21:29:31.731Z,-1.05
2022-12-09T21:32:01.706Z,-1.08
2022-12-09T21:34:30.142Z,-1.13
2022-12-09T21:36:59.789Z,-1.19
2022-12-09T21:39:29.122Z,-1.25
2022-12-09T21:41:57.501Z,-1.27
2022-12-09T21:44:27.261Z,-1.29
2022-12-09T21:46:55.634Z,-1.32
2022-12-09T21:49:24.059Z,-1.31
2022-12-09T21:51:52.384Z,-1.33
2022-12-09T21:54:22.017Z,-1.34
2022-12-09T21:56:50.494Z,-1.37
2022-12-09T21:59:19.081Z,-1.39
2022-12-09T22:01:47.519Z,-1.39
2022-12-09T22:04:17.376Z,-1.39
2022-12-09T22:06:49.559Z,-1.34
2022-12-09T22:09:21.652Z,-1.33
2022-12-09T22:11:50.143Z,-1.31
2022-12-09T22:14:18.684Z,-1.27
2022-12-09T22:16:47.466Z,-1.25
2022-12-09T22:19:21.037Z,-1.25
2022-12-09T22:21:51.109Z,-1.22
2022-12-09T22:24:21.386Z,-1.22
2022-12-09T22:26:49.710Z,-1.20
2022-12-09T22:29:19.874Z,-1.16
2022-12-09T22:31:48.643Z,-1.15
2022-12-09T22:34:19.910Z,-1.16
2022-12-09T22:36:49.401Z,-1.16
2022-12-09T22:39:22.111Z,-1.16
2022-12-09T22:41:50.934Z,-1.16
2022-12-09T22:44:21.008Z,-1.18
2022-12-09T22:46:49.990Z,-1.18
2022-12-09T22:49:18.699Z,-1.18
2022-12-09T22:51:47.836Z,-1.19
2022-12-09T22:54:16.592Z,-1.20
2022-12-09T22:56:46.364Z,-1.21
2022-12-09T22:59:16.054Z,-1.22
2022-12-09T23:01:48.499Z,-1.24
2022-12-09T23:04:21.657Z,-1.28
2022-12-09T23:06:51.136Z,-1.30
2022-12-09T23:09:22.435Z,-1.31
2022-12-09T23:11:53.386Z,-1.34
2022-12-09T23:14:21.862Z,-1.37
2022-12-09T23:16:50.352Z,-1.42
2022-12-09T23:19:18.586Z,-1.45
2022-12-09T23:21:47.119Z,-1.45
2022-12-09T23:24:24.704Z,-1.47
2022-12-09T23:26:56.742Z,-1.47
2022-12-09T23:29:25.086Z,-1.47
2022-12-09T23:31:53.574Z,-1.44
2022-12-09T23:34:21.811Z,-1.45
2022-12-09T23:36:50.089Z,-1.44
2022-12-09T23:39:20.147Z,-1.40
2022-12-09T23:41:49.389Z,-1.35
2022-12-09T23:44:20.120Z,-1.34
2022-12-09T23:46:48.558Z,-1.32
2022-12-09T23:49:17.707Z,-1.32
2022-12-09T23:51:46.248Z,-1.30
2022-12-09T23:54:16.762Z,-1.31
2022-12-09T23:56:50.267Z,-1.31
2022-12-09T23:59:22.703Z,-1.28
